Time;durP1;ratioP1;P1;durP2;ratioP2;P2;SDS_P1;SDS_P2;PMS_P1;PMS_P2;Temp;Humidity;BMP_temperature;BMP_pressure;BME280_temperature;BME280_humidity;BME280_pressure;Samples;Min_cycle;Max_cycle;Signal;HPM_P1;HPM_P2
2021/04/29 00:01:51;;;;;;;26.40;16.80;;;5.60;99.90;;;;;;5017113;28;20201;-73
2021/04/29 00:04:17;;;;;;;26.13;16.97;;;5.60;99.90;;;;;;5011546;28;20236;-73
2021/04/29 00:06:45;;;;;;;29.10;17.60;;;5.60;99.90;;;;;;5011684;28;20284;-73
2021/04/29 00:09:12;;;;;;;25.83;18.13;;;5.50;99.90;;;;;;5011502;28;20317;-73
2021/04/29 00:11:39;;;;;;;22.70;16.80;;;5.50;99.90;;;;;;5011442;28;20213;-74
2021/04/29 00:14:08;;;;;;;21.17;16.63;;;5.50;99.90;;;;;;5011997;28;20308;-73
2021/04/29 00:16:34;;;;;;;25.27;16.90;;;5.50;99.90;;;;;;5021777;28;20225;-74
2021/04/29 00:19:01;;;;;;;25.27;17.33;;;5.50;99.90;;;;;;5030334;28;20297;-74
2021/04/29 00:21:28;;;;;;;23.07;16.87;;;5.50;99.90;;;;;;5024784;28;20290;-73
2021/04/29 00:23:55;;;;;;;26.17;17.33;;;5.40;99.90;;;;;;5026738;28;20196;-73
2021/04/29 00:26:22;;;;;;;25.53;17.40;;;5.40;99.90;;;;;;5031357;28;20228;-74
2021/04/29 00:28:48;;;;;;;25.47;16.83;;;5.30;99.90;;;;;;5032398;28;20253;-74
2021/04/29 00:31:14;;;;;;;21.87;16.40;;;5.30;99.90;;;;;;5035354;28;20284;-73
2021/04/29 00:33:41;;;;;;;22.43;16.90;;;5.30;99.90;;;;;;5035097;28;20242;-73
2021/04/29 00:36:07;;;;;;;24.67;16.37;;;5.20;99.90;;;;;;5035194;28;20345;-73
2021/04/29 00:38:33;;;;;;;21.60;16.93;;;5.20;99.90;;;;;;5034614;28;20200;-73
2021/04/29 00:41:02;;;;;;;25.60;18.07;;;5.10;99.90;;;;;;5019594;28;20228;-73
2021/04/29 00:43:29;;;;;;;26.70;18.17;;;5.10;99.90;;;;;;5018158;28;20284;-73
2021/04/29 00:45:55;;;;;;;28.27;19.27;;;5.10;99.90;;;;;;5015052;28;20224;-73
2021/04/29 00:48:21;;;;;;;26.20;18.30;;;5.10;99.90;;;;;;5015395;28;20233;-73
2021/04/29 00:50:49;;;;;;;27.77;19.17;;;5.10;99.90;;;;;;5014709;28;20351;-73
2021/04/29 00:53:16;;;;;;;28.03;19.53;;;5.10;99.90;;;;;;5015019;28;20232;-73
2021/04/29 00:55:43;;;;;;;28.57;19.33;;;5.10;99.90;;;;;;5015030;28;20242;-73
2021/04/29 00:58:10;;;;;;;28.90;20.23;;;5.10;99.90;;;;;;5014594;28;20316;-73
2021/04/29 01:00:38;;;;;;;27.67;20.80;;;5.10;99.90;;;;;;5018479;28;20220;-74
2021/04/29 01:03:12;;;;;;;30.17;21.40;;;5.10;99.90;;;;;;5034488;28;20207;-73
2021/04/29 01:05:48;;;;;;;31.70;21.40;;;5.10;99.90;;;;;;5005002;28;20197;-73
2021/04/29 01:08:19;;;;;;;30.40;22.13;;;5.00;99.90;;;;;;5003734;28;20213;-73
2021/04/29 01:10:48;;;;;;;32.77;21.60;;;5.00;99.90;;;;;;4996465;28;20569;-73
2021/04/29 01:13:21;;;;;;;32.20;22.27;;;5.00;99.90;;;;;;5023952;28;20252;-73
2021/04/29 01:15:49;;;;;;;32.47;22.27;;;5.00;99.90;;;;;;5028769;28;20316;-73
2021/04/29 01:18:17;;;;;;;32.37;22.87;;;5.00;99.90;;;;;;5014641;28;20250;-73
2021/04/29 01:20:48;;;;;;;33.63;23.50;;;5.00;99.90;;;;;;4996980;28;20293;-73
2021/04/29 01:23:25;;;;;;;31.77;22.87;;;5.00;99.90;;;;;;5034190;28;20673;-73
2021/04/29 01:25:57;;;;;;;30.67;23.00;;;5.00;99.90;;;;;;5031599;28;20200;-73
2021/04/29 01:28:26;;;;;;;33.13;24.07;;;5.00;99.90;;;;;;5033968;28;20308;-74
2021/04/29 01:30:52;;;;;;;34.23;23.87;;;4.90;99.90;;;;;;5032934;28;20630;-73
2021/04/29 01:33:20;;;;;;;34.77;24.00;;;4.90;99.90;;;;;;5033246;28;20287;-73
2021/04/29 01:35:47;;;;;;;34.10;23.07;;;4.90;99.90;;;;;;5033817;28;20347;-73
2021/04/29 01:38:14;;;;;;;35.63;23.83;;;4.80;99.90;;;;;;5023515;28;20299;-73
2021/04/29 01:40:41;;;;;;;33.33;23.20;;;4.80;99.90;;;;;;5017275;28;20323;-73
2021/04/29 01:43:07;;;;;;;32.50;23.70;;;4.80;99.90;;;;;;5018091;28;20233;-73
2021/04/29 01:45:35;;;;;;;33.80;24.07;;;4.70;99.90;;;;;;5014014;28;20276;-74
2021/04/29 01:48:03;;;;;;;33.90;23.90;;;4.70;99.90;;;;;;5029843;28;20303;-73
2021/04/29 01:50:29;;;;;;;35.30;23.23;;;4.70;99.90;;;;;;5027755;28;20291;-73
2021/04/29 01:52:57;;;;;;;35.33;23.97;;;4.60;99.90;;;;;;5019523;28;20690;-73
2021/04/29 01:55:24;;;;;;;36.17;24.10;;;4.60;99.90;;;;;;5016375;28;20311;-73
2021/04/29 01:57:52;;;;;;;35.40;24.00;;;4.70;99.90;;;;;;5018822;28;20760;-74
2021/04/29 02:00:20;;;;;;;33.87;23.83;;;4.80;99.90;;;;;;5013197;28;20628;-74
2021/04/29 02:02:48;;;;;;;32.27;23.17;;;4.80;99.90;;;;;;5013300;28;20287;-73
2021/04/29 02:05:15;;;;;;;32.97;24.20;;;4.80;99.90;;;;;;5013615;28;20236;-73
2021/04/29 02:07:41;;;;;;;32.17;22.90;;;4.70;99.90;;;;;;5013364;28;20208;-73
2021/04/29 02:10:09;;;;;;;33.67;23.10;;;4.70;99.90;;;;;;5013633;28;20255;-73
2021/04/29 02:12:42;;;;;;;36.13;24.00;;;4.60;99.90;;;;;;5018677;28;20727;-73
2021/04/29 02:15:11;;;;;;;29.67;22.50;;;4.60;99.90;;;;;;5021651;28;20260;-73
2021/04/29 02:17:44;;;;;;;36.10;23.77;;;4.60;99.90;;;;;;5025220;28;20216;-74
2021/04/29 02:20:13;;;;;;;34.90;23.73;;;4.60;99.90;;;;;;5021942;28;20209;-72
2021/04/29 02:22:42;;;;;;;37.93;24.53;;;4.50;99.90;;;;;;5013435;28;20237;-72
2021/04/29 02:25:10;;;;;;;44.47;24.93;;;4.50;99.90;;;;;;5012825;28;20739;-72
2021/04/29 02:27:38;;;;;;;37.10;24.50;;;4.50;99.90;;;;;;5019421;28;20295;-74
2021/04/29 02:30:06;;;;;;;34.73;24.57;;;4.60;99.90;;;;;;5030279;28;20204;-74
2021/04/29 02:32:33;;;;;;;37.20;24.47;;;4.50;99.90;;;;;;5012715;28;20624;-73
2021/04/29 02:35:00;;;;;;;38.67;25.27;;;4.50;99.90;;;;;;5012610;28;20201;-72
2021/04/29 02:37:28;;;;;;;35.33;25.30;;;4.40;99.90;;;;;;5021134;28;20296;-72
2021/04/29 02:39:55;;;;;;;37.77;25.17;;;4.50;99.90;;;;;;5029634;28;20294;-71
2021/04/29 02:42:22;;;;;;;39.30;26.03;;;4.50;99.90;;;;;;5021723;28;20290;-71
2021/04/29 02:44:49;;;;;;;37.77;25.63;;;4.40;99.90;;;;;;5032269;28;20214;-74
2021/04/29 02:47:16;;;;;;;39.03;26.90;;;4.40;99.90;;;;;;5031718;28;20680;-74
2021/04/29 02:49:42;;;;;;;38.47;26.13;;;4.40;99.90;;;;;;5031110;28;20294;-74
2021/04/29 02:52:09;;;;;;;41.43;26.20;;;4.40;99.90;;;;;;5016179;28;20287;-71
2021/04/29 02:54:37;;;;;;;39.33;27.00;;;4.40;99.90;;;;;;5012604;28;20623;-74
2021/04/29 02:57:04;;;;;;;39.63;26.33;;;4.40;99.90;;;;;;5012323;28;20758;-74
2021/04/29 02:59:31;;;;;;;39.67;26.70;;;4.40;99.90;;;;;;5012438;28;20656;-73
2021/04/29 03:01:57;;;;;;;42.13;26.47;;;4.40;99.90;;;;;;5011484;28;20616;-74
2021/04/29 03:04:25;;;;;;;40.60;27.17;;;4.40;99.90;;;;;;5011876;28;20283;-73
2021/04/29 03:06:51;;;;;;;42.73;27.23;;;4.30;99.90;;;;;;5012432;28;20202;-74
2021/04/29 03:09:18;;;;;;;39.83;27.07;;;4.30;99.90;;;;;;5011900;28;20216;-74
2021/04/29 03:11:45;;;;;;;39.27;26.37;;;4.20;99.90;;;;;;5012429;28;20247;-74
2021/04/29 03:14:11;;;;;;;41.33;27.17;;;4.20;99.90;;;;;;5012564;28;20602;-74
2021/04/29 03:16:38;;;;;;;45.10;27.13;;;4.20;99.90;;;;;;5011429;28;20677;-74
2021/04/29 03:19:04;;;;;;;40.83;27.20;;;4.20;99.90;;;;;;5012400;28;20280;-74
2021/04/29 03:21:30;;;;;;;40.53;26.97;;;4.20;99.90;;;;;;5011659;28;20900;-73
2021/04/29 03:23:57;;;;;;;44.73;27.00;;;4.10;99.90;;;;;;5012180;28;20296;-73
2021/04/29 03:26:23;;;;;;;43.67;27.20;;;4.10;99.90;;;;;;5016520;28;20733;-73
2021/04/29 03:28:51;;;;;;;42.80;28.10;;;4.10;99.90;;;;;;5031666;28;20218;-74
2021/04/29 03:31:18;;;;;;;41.87;27.07;;;4.10;99.90;;;;;;5031906;28;20298;-73
2021/04/29 03:33:44;;;;;;;43.97;27.93;;;4.00;99.90;;;;;;5031733;28;20573;-73
2021/04/29 03:36:10;;;;;;;43.67;28.50;;;4.00;99.90;;;;;;5031781;28;20315;-73
2021/04/29 03:38:37;;;;;;;42.43;27.73;;;4.10;99.90;;;;;;5021897;28;20341;-73
2021/04/29 03:41:03;;;;;;;40.53;27.77;;;4.00;99.90;;;;;;5011663;28;20304;-74
2021/04/29 03:43:29;;;;;;;43.53;29.20;;;4.00;99.90;;;;;;5029661;28;20298;-74
2021/04/29 03:45:57;;;;;;;42.30;27.70;;;4.00;99.90;;;;;;5025321;28;20287;-74
2021/04/29 03:48:23;;;;;;;42.50;28.17;;;4.10;99.90;;;;;;5026867;28;20616;-74
2021/04/29 03:50:50;;;;;;;42.93;28.87;;;4.00;99.90;;;;;;5011890;28;20201;-74
2021/04/29 03:53:16;;;;;;;46.00;29.67;;;4.00;99.90;;;;;;5011740;28;20568;-74
2021/04/29 03:55:42;;;;;;;45.30;30.40;;;4.10;99.90;;;;;;5011777;28;20309;-73
2021/04/29 03:58:09;;;;;;;44.30;29.17;;;4.20;99.90;;;;;;5011936;28;20215;-74
2021/04/29 04:00:35;;;;;;;42.53;27.77;;;4.30;99.90;;;;;;5011676;28;20232;-74
2021/04/29 04:03:03;;;;;;;46.77;29.70;;;4.20;99.90;;;;;;5012947;28;20304;-74
2021/04/29 04:05:29;;;;;;;46.20;30.60;;;4.30;99.90;;;;;;5026289;28;20294;-73
2021/04/29 04:07:56;;;;;;;46.53;30.93;;;4.50;99.90;;;;;;5028904;28;20294;-73
2021/04/29 04:10:22;;;;;;;41.87;30.13;;;4.60;99.90;;;;;;5026937;28;20334;-73
2021/04/29 04:12:49;;;;;;;37.43;25.63;;;4.60;99.90;;;;;;5030444;28;20315;-73
2021/04/29 04:15:15;;;;;;;34.50;24.60;;;4.60;99.90;;;;;;5029759;28;20232;-74
2021/04/29 04:17:42;;;;;;;39.77;26.77;;;4.40;99.90;;;;;;5037897;28;20220;-74
2021/04/29 04:20:11;;;;;;;40.30;28.07;;;4.20;99.90;;;;;;5037938;28;20302;-73
2021/04/29 04:22:37;;;;;;;40.27;27.93;;;4.20;99.90;;;;;;5037955;28;20335;-73
2021/04/29 04:25:05;;;;;;;40.57;27.60;;;4.20;99.90;;;;;;5037611;28;20206;-74
2021/04/29 04:27:32;;;;;;;42.93;27.37;;;4.30;99.90;;;;;;5037760;28;20290;-73
2021/04/29 04:29:58;;;;;;;44.13;28.67;;;4.30;99.90;;;;;;5037652;28;20349;-74
2021/04/29 04:32:25;;;;;;;43.00;29.10;;;4.40;99.90;;;;;;5037725;28;20720;-74
2021/04/29 04:34:51;;;;;;;41.63;28.33;;;4.50;99.90;;;;;;5037848;28;20255;-74
2021/04/29 04:37:18;;;;;;;40.83;27.03;;;4.50;99.90;;;;;;5037482;28;20768;-73
2021/04/29 04:39:45;;;;;;;40.83;29.20;;;4.60;99.90;;;;;;5037919;28;20676;-74
2021/04/29 04:42:11;;;;;;;45.83;31.23;;;4.60;99.90;;;;;;5028494;28;20346;-73
2021/04/29 04:44:38;;;;;;;45.30;30.50;;;4.70;99.90;;;;;;5037673;28;20287;-74
2021/04/29 04:47:04;;;;;;;45.93;31.20;;;4.80;99.90;;;;;;5022494;28;20193;-73
2021/04/29 04:49:31;;;;;;;44.93;30.10;;;4.80;99.90;;;;;;5017802;28;20201;-73
2021/04/29 04:51:57;;;;;;;45.20;30.07;;;5.00;99.90;;;;;;5017877;28;20298;-74
2021/04/29 04:54:26;;;;;;;50.67;32.13;;;5.00;99.90;;;;;;5017770;28;20295;-74
2021/04/29 04:56:53;;;;;;;51.50;32.97;;;5.20;99.90;;;;;;5036712;28;20242;-74
2021/04/29 04:59:19;;;;;;;57.20;34.70;;;5.40;99.90;;;;;;5037197;28;20660;-74
2021/04/29 05:01:45;;;;;;;52.67;33.93;;;5.50;99.90;;;;;;5030578;28;20351;-74
2021/04/29 05:04:12;;;;;;;53.80;33.63;;;5.50;99.90;;;;;;5017885;28;20284;-74
2021/04/29 05:06:38;;;;;;;57.53;34.23;;;5.40;99.90;;;;;;5025172;28;20224;-73
2021/04/29 05:09:06;;;;;;;57.30;34.50;;;5.40;99.90;;;;;;5017637;28;20296;-74
2021/04/29 05:11:34;;;;;;;60.80;34.17;;;5.40;99.90;;;;;;5017851;28;20255;-74
2021/04/29 05:14:00;;;;;;;54.93;33.80;;;5.50;99.90;;;;;;5034737;28;20231;-73
2021/04/29 05:16:27;;;;;;;61.60;35.10;;;5.50;99.90;;;;;;5034250;28;20271;-74
2021/04/29 05:18:53;;;;;;;61.30;35.63;;;5.50;99.90;;;;;;5034225;28;20211;-74
2021/04/29 05:21:20;;;;;;;62.07;35.30;;;5.50;99.90;;;;;;5019566;28;20197;-73
2021/04/29 05:23:46;;;;;;;67.73;36.63;;;5.50;99.90;;;;;;5034069;28;20584;-72
2021/04/29 05:26:13;;;;;;;60.73;34.83;;;5.50;99.90;;;;;;5033545;28;20200;-73
2021/04/29 05:28:40;;;;;;;65.23;37.87;;;5.50;99.90;;;;;;5029844;28;20231;-73
2021/04/29 05:31:07;;;;;;;64.27;37.83;;;5.50;99.90;;;;;;5023722;28;20254;-73
2021/04/29 05:33:33;;;;;;;65.80;37.03;;;5.60;99.90;;;;;;5034292;28;20292;-73
2021/04/29 05:35:59;;;;;;;67.80;37.70;;;5.60;99.90;;;;;;5026313;28;20221;-73
2021/04/29 05:38:26;;;;;;;63.10;36.97;;;5.60;99.90;;;;;;5014017;28;20292;-73
2021/04/29 05:40:52;;;;;;;67.47;38.67;;;5.60;99.90;;;;;;5014370;28;20287;-73
2021/04/29 05:43:18;;;;;;;65.37;37.80;;;5.70;99.90;;;;;;5013716;28;20236;-73
2021/04/29 05:45:46;;;;;;;72.33;37.63;;;5.80;99.90;;;;;;5013988;28;20281;-74
2021/04/29 05:48:12;;;;;;;73.77;38.10;;;5.80;99.90;;;;;;5013549;28;20348;-73
2021/04/29 05:50:38;;;;;;;68.03;38.57;;;5.80;99.90;;;;;;5028545;28;20308;-73
2021/04/29 05:53:05;;;;;;;67.20;39.00;;;5.80;99.90;;;;;;5032854;28;20286;-73
2021/04/29 05:55:31;;;;;;;65.73;38.00;;;5.90;99.90;;;;;;5010514;28;20230;-74
2021/04/29 05:57:59;;;;;;;64.67;36.97;;;6.00;99.90;;;;;;5015202;28;20311;-74
2021/04/29 06:00:26;;;;;;;68.17;38.60;;;5.90;99.90;;;;;;5016664;28;20647;-71
2021/04/29 06:02:55;;;;;;;64.83;37.77;;;5.90;99.90;;;;;;5018346;28;20864;-73
2021/04/29 06:05:22;;;;;;;61.40;38.67;;;6.00;99.90;;;;;;5013427;28;20296;-71
2021/04/29 06:07:54;;;;;;;62.83;38.87;;;6.10;99.90;;;;;;5014595;28;20288;-73
2021/04/29 06:10:21;;;;;;;57.30;37.00;;;6.10;99.90;;;;;;4992990;28;20790;-71
2021/04/29 06:12:47;;;;;;;54.13;35.53;;;6.40;99.90;;;;;;5018330;28;20223;-71
2021/04/29 06:15:15;;;;;;;53.87;35.90;;;6.30;99.90;;;;;;5020226;28;20311;-72
2021/04/29 06:17:41;;;;;;;56.40;36.03;;;6.40;99.90;;;;;;5017572;28;20290;-72
2021/04/29 06:20:10;;;;;;;56.27;35.40;;;6.50;99.90;;;;;;5020546;28;20301;-71
2021/04/29 06:22:36;;;;;;;56.00;34.87;;;6.50;99.90;;;;;;5013620;28;20293;-72
2021/04/29 06:25:07;;;;;;;53.83;36.03;;;6.50;99.90;;;;;;5011310;28;20330;-72
2021/04/29 06:27:33;;;;;;;54.60;36.53;;;6.60;99.90;;;;;;5014575;28;20228;-72
2021/04/29 06:30:00;;;;;;;53.17;36.00;;;6.70;99.90;;;;;;5014463;28;20291;-72
2021/04/29 06:32:27;;;;;;;51.77;35.33;;;6.90;99.90;;;;;;5015947;28;20288;-72
2021/04/29 06:34:53;;;;;;;51.83;34.63;;;7.10;99.90;;;;;;5012272;28;20736;-71
2021/04/29 06:37:21;;;;;;;47.83;34.70;;;7.60;99.90;;;;;;5014274;28;20374;-72
2021/04/29 06:39:47;;;;;;;48.00;32.87;;;7.80;99.90;;;;;;5011782;28;20646;-72
2021/04/29 06:42:14;;;;;;;45.03;34.00;;;8.00;99.90;;;;;;5015796;28;20311;-72
2021/04/29 06:44:41;;;;;;;45.67;32.40;;;8.20;99.90;;;;;;5016853;28;20206;-72
2021/04/29 06:47:07;;;;;;;42.53;31.63;;;8.50;99.90;;;;;;5019995;28;20276;-72
2021/04/29 06:49:34;;;;;;;46.57;32.77;;;8.90;99.90;;;;;;5018108;28;20295;-72
2021/04/29 06:52:01;;;;;;;40.87;31.10;;;9.40;99.90;;;;;;5013043;28;20237;-72
2021/04/29 06:54:29;;;;;;;38.63;29.77;;;9.60;99.90;;;;;;5011355;28;20254;-72
2021/04/29 06:56:58;;;;;;;33.70;26.87;;;10.60;99.90;;;;;;5019450;28;20302;-72
2021/04/29 06:59:24;;;;;;;32.33;26.43;;;11.50;99.90;;;;;;5014465;28;20216;-72
2021/04/29 07:01:51;;;;;;;31.73;24.70;;;11.90;99.90;;;;;;5021211;28;20315;-72
2021/04/29 07:04:17;;;;;;;30.80;24.60;;;12.20;99.90;;;;;;5024467;28;20211;-72
2021/04/29 07:06:44;;;;;;;27.57;23.73;;;13.10;99.90;;;;;;5014149;28;20308;-72
2021/04/29 07:09:10;;;;;;;32.27;25.00;;;13.10;99.90;;;;;;5001151;28;20383;-72
2021/04/29 07:11:37;;;;;;;25.53;22.83;;;13.70;99.90;;;;;;5014642;28;20341;-73
2021/04/29 07:14:04;;;;;;;26.93;22.80;;;13.80;99.90;;;;;;5012149;28;20303;-72
2021/04/29 07:16:31;;;;;;;24.10;21.60;;;13.70;99.90;;;;;;5010960;28;20788;-72
2021/04/29 07:18:57;;;;;;;24.73;20.87;;;13.80;99.90;;;;;;5012980;28;20749;-72
2021/04/29 07:21:24;;;;;;;22.90;19.90;;;13.80;99.90;;;;;;5011560;28;20724;-72
2021/04/29 07:23:53;;;;;;;21.70;19.50;;;14.40;99.90;;;;;;5011105;28;20284;-72
2021/04/29 07:26:19;;;;;;;23.50;20.40;;;14.60;99.90;;;;;;5005222;28;20925;-72
2021/04/29 07:28:47;;;;;;;21.43;19.00;;;14.60;99.90;;;;;;5012385;28;20288;-72
2021/04/29 07:31:14;;;;;;;24.23;19.80;;;14.70;99.90;;;;;;5013315;28;20296;-72
2021/04/29 07:33:41;;;;;;;21.97;18.17;;;14.40;99.90;;;;;;5010194;28;20288;-72
2021/04/29 07:36:07;;;;;;;22.90;18.87;;;13.10;99.90;;;;;;5013587;28;20307;-73
2021/04/29 07:38:34;;;;;;;25.10;18.70;;;12.10;99.90;;;;;;5013631;28;20292;-72
2021/04/29 07:41:01;;;;;;;22.03;16.77;;;12.30;99.90;;;;;;5013343;28;20347;-72
2021/04/29 07:43:28;;;;;;;21.63;17.27;;;13.10;99.90;;;;;;5001861;28;20529;-72
2021/04/29 07:45:55;;;;;;;26.37;18.03;;;13.50;99.90;;;;;;5008132;28;20292;-72
2021/04/29 07:48:22;;;;;;;20.37;14.93;;;13.90;99.90;;;;;;5016319;28;20207;-72
2021/04/29 07:50:49;;;;;;;18.23;13.90;;;12.80;99.90;;;;;;5020583;28;20321;-73
2021/04/29 07:53:16;;;;;;;23.00;14.33;;;12.80;99.90;;;;;;5012006;28;20197;-73
2021/04/29 07:55:44;;;;;;;18.80;13.03;;;12.80;99.90;;;;;;5013389;28;20217;-73
2021/04/29 07:58:12;;;;;;;18.40;12.90;;;12.90;99.90;;;;;;5012891;28;20247;-72
2021/04/29 08:00:40;;;;;;;20.97;13.40;;;13.60;99.90;;;;;;5013236;28;20197;-73
2021/04/29 08:03:07;;;;;;;32.60;14.57;;;13.10;99.90;;;;;;5014899;28;20201;-73
2021/04/29 08:05:35;;;;;;;20.80;14.00;;;13.90;99.90;;;;;;5009773;28;20296;-73
2021/04/29 08:08:02;;;;;;;23.90;13.40;;;14.80;99.90;;;;;;5008040;28;20259;-73
2021/04/29 08:10:28;;;;;;;19.00;12.73;;;15.40;99.90;;;;;;5011733;28;20212;-73
2021/04/29 08:12:58;;;;;;;16.03;11.93;;;16.00;99.90;;;;;;5014330;28;20311;-71
2021/04/29 08:15:24;;;;;;;16.53;12.57;;;15.80;99.90;;;;;;5006209;28;20228;-73
2021/04/29 08:17:51;;;;;;;20.83;13.40;;;15.10;99.90;;;;;;5011946;28;20293;-73
2021/04/29 08:20:18;;;;;;;23.70;12.80;;;15.70;99.90;;;;;;5004913;28;20295;-73
2021/04/29 08:22:46;;;;;;;17.03;12.83;;;16.70;99.90;;;;;;5012938;28;20229;-73
2021/04/29 08:25:12;;;;;;;31.75;13.88;;;16.60;99.90;;;;;;5010133;28;20312;-73
2021/04/29 08:27:40;;;;;;;17.73;12.90;;;17.30;99.90;;;;;;5015301;28;20276;-73
2021/04/29 08:30:08;;;;;;;15.27;12.05;;;17.80;99.90;;;;;;5011159;28;20255;-73
2021/04/29 08:32:34;;;;;;;14.85;11.82;;;18.20;99.90;;;;;;5010756;28;20324;-73
2021/04/29 08:35:01;;;;;;;16.55;12.30;;;18.60;99.90;;;;;;5011683;28;20288;-74
2021/04/29 08:37:28;;;;;;;15.25;11.85;;;17.90;99.90;;;;;;5008114;28;20228;-73
2021/04/29 08:39:54;;;;;;;15.75;12.63;;;18.40;99.90;;;;;;5012069;28;20201;-74
2021/04/29 08:42:20;;;;;;;17.05;12.52;;;17.90;99.90;;;;;;5010889;28;20279;-74
2021/04/29 08:44:47;;;;;;;18.70;13.05;;;17.80;99.90;;;;;;5013673;28;20233;-74
2021/04/29 08:47:13;;;;;;;16.83;12.02;;;17.40;99.90;;;;;;5007164;28;20280;-74
2021/04/29 08:49:40;;;;;;;16.67;12.13;;;17.40;99.90;;;;;;5015437;28;20288;-74
2021/04/29 08:52:07;;;;;;;13.73;11.50;;;17.10;99.90;;;;;;5013577;28;20255;-74
2021/04/29 08:54:37;;;;;;;15.15;12.15;;;18.80;99.90;;;;;;5020105;28;20283;-74
2021/04/29 08:57:06;;;;;;;13.02;11.57;;;19.90;99.90;;;;;;5015249;28;20221;-74
2021/04/29 08:59:33;;;;;;;14.60;11.25;;;17.40;99.90;;;;;;5012941;28;20201;-74
2021/04/29 09:02:00;;;;;;;17.25;11.20;;;17.30;99.90;;;;;;5014010;28;20284;-74
2021/04/29 09:04:28;;;;;;;16.10;11.35;;;16.30;99.90;;;;;;5013209;28;20280;-74
2021/04/29 09:06:56;;;;;;;15.52;11.20;;;17.20;99.90;;;;;;5017646;28;20213;-74
2021/04/29 09:09:22;;;;;;;13.27;11.27;;;16.70;99.90;;;;;;5017828;28;20228;-74
2021/04/29 09:11:55;;;;;;;12.53;11.17;;;16.30;99.90;;;;;;5018834;28;20300;-74
2021/04/29 09:14:32;;;;;;;15.30;11.33;;;15.30;99.90;;;;;;5015950;28;20283;-74
2021/04/29 09:16:59;;;;;;;13.00;10.87;;;16.60;99.90;;;;;;5019388;28;20263;-74
2021/04/29 09:19:27;;;;;;;15.80;10.90;;;16.90;99.90;;;;;;5015780;28;20386;-74
2021/04/29 09:21:56;;;;;;;14.75;10.98;;;18.10;99.90;;;;;;5016497;28;20201;-74
2021/04/29 09:24:34;;;;;;;14.52;10.77;;;17.80;99.90;;;;;;5013148;28;20344;-74
2021/04/29 09:27:14;;;;;;;16.27;11.40;;;16.80;99.90;;;;;;5014481;28;20220;-74
2021/04/29 09:29:58;;;;;;;14.20;11.37;;;15.40;99.90;;;;;;5011084;28;20208;-74
2021/04/29 09:32:29;;;;;;;13.38;11.45;;;17.20;99.90;;;;;;5012050;28;20207;-74
2021/04/29 09:34:59;;;;;;;13.63;10.02;;;18.70;99.90;;;;;;5009098;28;20207;-74
2021/04/29 09:37:32;;;;;;;14.70;10.15;;;19.40;99.90;;;;;;5013751;28;20733;-74
2021/04/29 09:40:07;;;;;;;11.23;9.43;;;19.90;99.90;;;;;;5016416;28;20201;-74
2021/04/29 09:42:36;;;;;;;16.10;9.68;;;20.60;99.90;;;;;;5008426;28;20216;-74
2021/04/29 09:45:05;;;;;;;14.18;9.27;;;20.60;99.90;;;;;;5012976;28;20201;-74
2021/04/29 09:47:31;;;;;;;14.75;10.18;;;20.20;99.90;;;;;;5009837;28;20795;-74
2021/04/29 09:49:58;;;;;;;15.18;9.93;;;18.20;99.90;;;;;;5012794;28;20284;-74
2021/04/29 09:52:26;;;;;;;10.90;9.15;;;17.30;99.90;;;;;;5012037;28;20292;-74
2021/04/29 09:54:53;;;;;;;11.02;9.15;;;18.10;99.90;;;;;;5014624;28;20327;-74
2021/04/29 09:57:24;;;;;;;13.90;10.23;;;19.10;99.90;;;;;;5014107;28;20252;-74
2021/04/29 09:59:56;;;;;;;10.43;9.32;;;18.30;99.90;;;;;;5016922;28;20286;-74
2021/04/29 10:02:23;;;;;;;12.80;9.65;;;16.90;99.90;;;;;;5013249;28;20355;-74
2021/04/29 10:04:51;;;;;;;16.60;9.48;;;16.90;99.90;;;;;;5013028;28;20240;-74
2021/04/29 10:07:19;;;;;;;12.98;9.52;;;19.20;99.90;;;;;;5019078;28;20204;-74
2021/04/29 10:09:46;;;;;;;12.85;9.25;;;21.00;98.70;;;;;;5015255;28;20677;-74
2021/04/29 10:12:14;;;;;;;10.25;9.25;;;19.00;99.90;;;;;;5017997;28;20197;-74
2021/04/29 10:14:42;;;;;;;11.93;9.70;;;18.30;99.90;;;;;;5014459;28;20287;-74
2021/04/29 10:17:11;;;;;;;10.90;9.10;;;18.70;99.90;;;;;;5006021;28;20237;-73
2021/04/29 10:19:41;;;;;;;13.40;10.10;;;17.50;99.90;;;;;;5011490;28;20201;-74
2021/04/29 10:22:09;;;;;;;12.93;9.88;;;16.80;99.90;;;;;;5009124;28;20700;-74
2021/04/29 10:24:36;;;;;;;11.23;9.73;;;16.60;99.90;;;;;;5010853;28;20201;-74
2021/04/29 10:27:03;;;;;;;12.32;8.93;;;18.20;99.90;;;;;;5014645;28;20656;-74
2021/04/29 10:29:30;;;;;;;10.77;9.67;;;17.60;99.90;;;;;;5016126;28;20210;-73
2021/04/29 10:31:58;;;;;;;14.07;9.80;;;16.20;99.90;;;;;;5015856;28;20229;-74
2021/04/29 10:34:36;;;;;;;14.43;11.03;;;15.50;99.90;;;;;;5013614;28;20308;-73
2021/04/29 10:37:14;;;;;;;14.50;10.40;;;16.70;99.90;;;;;;5013912;28;20323;-73
2021/04/29 10:39:51;;;;;;;13.53;10.20;;;17.30;99.90;;;;;;5015869;28;20212;-73
2021/04/29 10:42:18;;;;;;;14.40;9.37;;;16.70;99.90;;;;;;5018634;28;20227;-73
2021/04/29 10:44:46;;;;;;;12.50;10.43;;;16.60;99.90;;;;;;5019588;28;20197;-73
2021/04/29 10:47:22;;;;;;;14.43;10.57;;;16.00;99.90;;;;;;5016621;28;20645;-73
2021/04/29 10:49:50;;;;;;;12.93;10.60;;;15.50;99.90;;;;;;5012581;28;20243;-73
2021/04/29 10:52:16;;;;;;;14.87;11.00;;;15.50;99.90;;;;;;5017245;28;20289;-73
2021/04/29 10:54:49;;;;;;;12.57;10.90;;;15.60;99.90;;;;;;5020842;28;20664;-73
2021/04/29 10:57:16;;;;;;;14.50;10.63;;;14.50;99.90;;;;;;5021316;28;20310;-73
2021/04/29 10:59:44;;;;;;;11.73;10.27;;;14.40;99.90;;;;;;5019754;28;20287;-74
2021/04/29 11:02:24;;;;;;;14.63;10.43;;;14.70;99.90;;;;;;5028086;28;20749;-73
2021/04/29 11:04:52;;;;;;;11.20;9.53;;;17.00;99.90;;;;;;5015120;28;20304;-73
2021/04/29 11:07:20;;;;;;;10.23;9.10;;;18.20;99.90;;;;;;5015220;28;20288;-73
2021/04/29 11:09:58;;;;;;;12.48;9.13;;;20.60;99.90;;;;;;5018529;28;20211;-73
2021/04/29 11:12:39;;;;;;;12.82;8.80;;;20.90;97.50;;;;;;5022141;28;20262;-73
2021/04/29 11:15:18;;;;;;;12.27;9.20;;;19.80;96.70;;;;;;5022583;28;20318;-74
2021/04/29 11:17:44;;;;;;;11.63;9.47;;;16.60;99.90;;;;;;5022187;28;20224;-73
2021/04/29 11:20:12;;;;;;;11.97;9.93;;;15.70;99.90;;;;;;5017063;28;20331;-72
2021/04/29 11:22:39;;;;;;;12.57;10.10;;;15.40;99.90;;;;;;5014787;28;20292;-72
2021/04/29 11:25:10;;;;;;;13.27;10.63;;;14.90;99.90;;;;;;5025840;28;20211;-73
2021/04/29 11:27:38;;;;;;;12.47;10.50;;;14.80;99.90;;;;;;5011741;28;20279;-72
2021/04/29 11:30:08;;;;;;;13.70;10.97;;;14.30;99.90;;;;;;5021049;28;20205;-73
2021/04/29 11:32:36;;;;;;;14.30;10.10;;;14.60;99.90;;;;;;5007703;28;20292;-73
2021/04/29 11:35:05;;;;;;;13.83;10.60;;;14.90;99.90;;;;;;5009811;28;20296;-73
2021/04/29 11:37:41;;;;;;;12.87;10.20;;;14.80;99.90;;;;;;5010451;28;20320;-73
2021/04/29 11:40:09;;;;;;;12.60;10.27;;;14.60;99.90;;;;;;5008048;28;20205;-73
2021/04/29 11:42:36;;;;;;;13.03;10.30;;;14.50;99.90;;;;;;5005620;28;20211;-73
2021/04/29 11:45:07;;;;;;;11.93;9.77;;;14.40;99.90;;;;;;5009756;28;20284;-73
2021/04/29 11:47:34;;;;;;;11.57;9.57;;;14.70;99.90;;;;;;5010590;28;20280;-72
2021/04/29 11:50:00;;;;;;;13.30;8.67;;;14.70;99.90;;;;;;5004724;28;20212;-73
2021/04/29 11:52:28;;;;;;;13.60;9.70;;;14.90;99.90;;;;;;5010200;28;20299;-72
2021/04/29 11:54:56;;;;;;;12.63;9.67;;;14.80;99.90;;;;;;5015608;28;20279;-73
2021/04/29 11:57:22;;;;;;;12.67;9.83;;;14.80;99.90;;;;;;5015787;28;20324;-72
2021/04/29 11:59:51;;;;;;;11.40;9.80;;;14.70;99.90;;;;;;5012305;28;20635;-73
2021/04/29 12:02:18;;;;;;;11.97;9.60;;;14.80;99.90;;;;;;5014222;28;20296;-73
2021/04/29 12:04:46;;;;;;;12.40;9.33;;;14.90;99.90;;;;;;5012328;28;20899;-74
2021/04/29 12:07:14;;;;;;;13.20;10.03;;;15.40;99.90;;;;;;5011111;28;20189;-73
2021/04/29 12:09:42;;;;;;;12.43;9.50;;;15.40;99.90;;;;;;5010523;28;20213;-73
2021/04/29 12:12:15;;;;;;;13.17;9.30;;;15.40;99.90;;;;;;5018525;28;20542;-73
2021/04/29 12:14:49;;;;;;;13.53;9.33;;;15.20;99.90;;;;;;5018641;28;20781;-73
2021/04/29 12:17:15;;;;;;;14.07;9.47;;;15.50;99.90;;;;;;5013254;28;20224;-73
2021/04/29 12:19:48;;;;;;;11.37;9.30;;;15.40;99.90;;;;;;5016440;28;20288;-75
2021/04/29 12:22:15;;;;;;;10.33;8.33;;;15.70;99.90;;;;;;5010255;28;20263;-75
2021/04/29 12:24:42;;;;;;;13.50;9.40;;;16.10;99.90;;;;;;5016782;28;20193;-75
2021/04/29 12:27:14;;;;;;;11.90;8.87;;;16.10;99.90;;;;;;5019230;28;20229;-75
2021/04/29 12:29:40;;;;;;;11.40;9.20;;;16.10;99.90;;;;;;5025673;28;20196;-75
2021/04/29 12:32:07;;;;;;;13.67;9.30;;;15.50;99.90;;;;;;5019288;28;20339;-75
2021/04/29 12:34:33;;;;;;;15.70;9.40;;;15.70;99.90;;;;;;5025442;28;20307;-75
2021/04/29 12:37:02;;;;;;;11.77;8.50;;;15.70;99.90;;;;;;5025962;28;20770;-75